sensor_id;sensor_type;location;lat;lon;timestamp;P1;durP1;ratioP1;P2;durP2;ratioP2
11006;SDS011;8186;57.652;11.968;2023-07-29T00:01:40;2.60;;;2.40;;
11006;SDS011;8186;57.652;11.968;2023-07-29T00:04:07;2.67;;;1.97;;
11006;SDS011;8186;57.652;11.968;2023-07-29T00:06:34;2.93;;;2.63;;
11006;SDS011;8186;57.652;11.968;2023-07-29T00:09:04;2.77;;;2.23;;
11006;SDS011;8186;57.652;11.968;2023-07-29T00:11:31;7.53;;;2.93;;
11006;SDS011;8186;57.652;11.968;2023-07-29T00:13:59;2.93;;;2.50;;
11006;SDS011;8186;57.652;11.968;2023-07-29T00:16:27;3.63;;;2.40;;
11006;SDS011;8186;57.652;11.968;2023-07-29T00:18:54;3.43;;;2.17;;
11006;SDS011;8186;57.652;11.968;2023-07-29T00:21:21;2.60;;;2.40;;
11006;SDS011;8186;57.652;11.968;2023-07-29T00:23:49;4.83;;;2.40;;
11006;SDS011;8186;57.652;11.968;2023-07-29T00:26:17;4.17;;;2.10;;
11006;SDS011;8186;57.652;11.968;2023-07-29T00:28:44;5.07;;;2.27;;
11006;SDS011;8186;57.652;11.968;2023-07-29T00:31:11;3.03;;;2.10;;
11006;SDS011;8186;57.652;11.968;2023-07-29T00:33:38;2.43;;;2.30;;
11006;SDS011;8186;57.652;11.968;2023-07-29T00:36:05;3.03;;;2.37;;
11006;SDS011;8186;57.652;11.968;2023-07-29T00:38:32;3.57;;;2.50;;
11006;SDS011;8186;57.652;11.968;2023-07-29T00:40:59;2.60;;;2.30;;
11006;SDS011;8186;57.652;11.968;2023-07-29T00:43:28;2.87;;;2.10;;
11006;SDS011;8186;57.652;11.968;2023-07-29T00:45:56;3.50;;;2.30;;
11006;SDS011;8186;57.652;11.968;2023-07-29T00:48:23;2.50;;;2.30;;
11006;SDS011;8186;57.652;11.968;2023-07-29T00:50:50;3.27;;;1.93;;
11006;SDS011;8186;57.652;11.968;2023-07-29T00:53:18;2.80;;;2.60;;
11006;SDS011;8186;57.652;11.968;2023-07-29T00:55:45;2.47;;;2.27;;
11006;SDS011;8186;57.652;11.968;2023-07-29T00:58:12;3.03;;;2.73;;
11006;SDS011;8186;57.652;11.968;2023-07-29T01:00:40;3.57;;;2.33;;
11006;SDS011;8186;57.652;11.968;2023-07-29T01:03:08;4.23;;;2.63;;
11006;SDS011;8186;57.652;11.968;2023-07-29T01:05:36;4.13;;;2.90;;
11006;SDS011;8186;57.652;11.968;2023-07-29T01:08:09;2.70;;;2.50;;
11006;SDS011;8186;57.652;11.968;2023-07-29T01:10:39;2.77;;;2.57;;
11006;SDS011;8186;57.652;11.968;2023-07-29T01:13:13;4.17;;;2.80;;
11006;SDS011;8186;57.652;11.968;2023-07-29T01:15:46;2.67;;;2.33;;
11006;SDS011;8186;57.652;11.968;2023-07-29T01:18:18;2.90;;;2.53;;
11006;SDS011;8186;57.652;11.968;2023-07-29T01:20:49;5.93;;;2.90;;
11006;SDS011;8186;57.652;11.968;2023-07-29T01:23:23;3.67;;;2.73;;
11006;SDS011;8186;57.652;11.968;2023-07-29T01:25:51;3.13;;;2.30;;
11006;SDS011;8186;57.652;11.968;2023-07-29T01:28:18;3.13;;;2.60;;
11006;SDS011;8186;57.652;11.968;2023-07-29T01:30:45;3.73;;;3.07;;
11006;SDS011;8186;57.652;11.968;2023-07-29T01:33:17;3.23;;;2.87;;
11006;SDS011;8186;57.652;11.968;2023-07-29T01:35:48;5.10;;;2.80;;
11006;SDS011;8186;57.652;11.968;2023-07-29T01:38:18;3.37;;;2.80;;
11006;SDS011;8186;57.652;11.968;2023-07-29T01:40:47;4.07;;;2.60;;
11006;SDS011;8186;57.652;11.968;2023-07-29T01:43:15;3.10;;;2.80;;
11006;SDS011;8186;57.652;11.968;2023-07-29T01:45:44;3.23;;;2.90;;
11006;SDS011;8186;57.652;11.968;2023-07-29T01:48:11;4.13;;;2.67;;
11006;SDS011;8186;57.652;11.968;2023-07-29T01:50:38;3.60;;;2.67;;
11006;SDS011;8186;57.652;11.968;2023-07-29T01:53:05;3.37;;;2.63;;
11006;SDS011;8186;57.652;11.968;2023-07-29T01:55:32;3.77;;;2.50;;
11006;SDS011;8186;57.652;11.968;2023-07-29T01:58:00;2.97;;;2.70;;
11006;SDS011;8186;57.652;11.968;2023-07-29T02:00:27;4.43;;;2.70;;
11006;SDS011;8186;57.652;11.968;2023-07-29T02:02:54;3.63;;;2.97;;
11006;SDS011;8186;57.652;11.968;2023-07-29T02:05:21;3.53;;;2.80;;
11006;SDS011;8186;57.652;11.968;2023-07-29T02:07:48;3.00;;;2.70;;
11006;SDS011;8186;57.652;11.968;2023-07-29T02:10:15;2.60;;;2.40;;
11006;SDS011;8186;57.652;11.968;2023-07-29T02:12:42;4.83;;;2.70;;
11006;SDS011;8186;57.652;11.968;2023-07-29T02:15:10;3.20;;;2.77;;
11006;SDS011;8186;57.652;11.968;2023-07-29T02:17:38;3.20;;;2.90;;
11006;SDS011;8186;57.652;11.968;2023-07-29T02:20:08;2.87;;;2.60;;
11006;SDS011;8186;57.652;11.968;2023-07-29T02:22:36;5.47;;;3.07;;
11006;SDS011;8186;57.652;11.968;2023-07-29T02:25:04;3.50;;;3.20;;
11006;SDS011;8186;57.652;11.968;2023-07-29T02:27:32;3.83;;;3.00;;
11006;SDS011;8186;57.652;11.968;2023-07-29T02:29:59;4.20;;;3.33;;
11006;SDS011;8186;57.652;11.968;2023-07-29T02:32:27;4.60;;;3.27;;
11006;SDS011;8186;57.652;11.968;2023-07-29T02:34:54;7.20;;;3.10;;
11006;SDS011;8186;57.652;11.968;2023-07-29T02:37:21;4.50;;;3.27;;
11006;SDS011;8186;57.652;11.968;2023-07-29T02:39:48;3.50;;;3.20;;
11006;SDS011;8186;57.652;11.968;2023-07-29T02:42:15;5.83;;;3.87;;
11006;SDS011;8186;57.652;11.968;2023-07-29T02:44:43;4.87;;;3.60;;
11006;SDS011;8186;57.652;11.968;2023-07-29T02:47:10;3.20;;;2.97;;
11006;SDS011;8186;57.652;11.968;2023-07-29T02:49:38;4.53;;;3.20;;
11006;SDS011;8186;57.652;11.968;2023-07-29T02:52:05;3.77;;;3.43;;
11006;SDS011;8186;57.652;11.968;2023-07-29T02:54:32;7.33;;;3.37;;
11006;SDS011;8186;57.652;11.968;2023-07-29T02:56:59;3.70;;;3.30;;
11006;SDS011;8186;57.652;11.968;2023-07-29T02:59:26;3.93;;;3.60;;
11006;SDS011;8186;57.652;11.968;2023-07-29T03:01:53;4.30;;;3.33;;
11006;SDS011;8186;57.652;11.968;2023-07-29T03:04:20;4.97;;;3.33;;
11006;SDS011;8186;57.652;11.968;2023-07-29T03:06:50;5.43;;;3.27;;
11006;SDS011;8186;57.652;11.968;2023-07-29T03:09:17;3.40;;;3.10;;
11006;SDS011;8186;57.652;11.968;2023-07-29T03:11:43;6.50;;;3.30;;
11006;SDS011;8186;57.652;11.968;2023-07-29T03:14:11;3.10;;;2.80;;
11006;SDS011;8186;57.652;11.968;2023-07-29T03:16:38;3.80;;;3.33;;
11006;SDS011;8186;57.652;11.968;2023-07-29T03:19:05;3.60;;;3.20;;
11006;SDS011;8186;57.652;11.968;2023-07-29T03:21:32;3.27;;;3.03;;
11006;SDS011;8186;57.652;11.968;2023-07-29T03:24:00;4.20;;;3.17;;
11006;SDS011;8186;57.652;11.968;2023-07-29T03:26:27;5.10;;;2.90;;
11006;SDS011;8186;57.652;11.968;2023-07-29T03:28:54;3.80;;;3.40;;
11006;SDS011;8186;57.652;11.968;2023-07-29T03:31:21;6.60;;;3.23;;
11006;SDS011;8186;57.652;11.968;2023-07-29T03:33:48;3.50;;;3.20;;
11006;SDS011;8186;57.652;11.968;2023-07-29T03:36:15;4.13;;;2.90;;
11006;SDS011;8186;57.652;11.968;2023-07-29T03:38:42;3.43;;;3.13;;
11006;SDS011;8186;57.652;11.968;2023-07-29T03:41:12;3.67;;;3.10;;
11006;SDS011;8186;57.652;11.968;2023-07-29T03:43:39;3.50;;;3.17;;
11006;SDS011;8186;57.652;11.968;2023-07-29T03:46:06;4.13;;;3.13;;
11006;SDS011;8186;57.652;11.968;2023-07-29T03:48:33;6.47;;;3.40;;
11006;SDS011;8186;57.652;11.968;2023-07-29T03:51:00;3.90;;;3.10;;
11006;SDS011;8186;57.652;11.968;2023-07-29T03:53:27;3.90;;;3.50;;
11006;SDS011;8186;57.652;11.968;2023-07-29T03:55:54;3.90;;;3.23;;
11006;SDS011;8186;57.652;11.968;2023-07-29T03:58:23;3.47;;;3.03;;
11006;SDS011;8186;57.652;11.968;2023-07-29T04:00:50;3.20;;;2.90;;
11006;SDS011;8186;57.652;11.968;2023-07-29T04:03:17;3.47;;;3.17;;
11006;SDS011;8186;57.652;11.968;2023-07-29T04:05:44;3.70;;;2.77;;
11006;SDS011;8186;57.652;11.968;2023-07-29T04:08:12;3.43;;;3.10;;
11006;SDS011;8186;57.652;11.968;2023-07-29T04:10:39;4.13;;;3.13;;
11006;SDS011;8186;57.652;11.968;2023-07-29T04:13:06;4.70;;;3.27;;
11006;SDS011;8186;57.652;11.968;2023-07-29T04:15:34;3.70;;;3.40;;
11006;SDS011;8186;57.652;11.968;2023-07-29T04:18:01;4.17;;;3.47;;
11006;SDS011;8186;57.652;11.968;2023-07-29T04:20:29;3.90;;;3.30;;
11006;SDS011;8186;57.652;11.968;2023-07-29T04:22:55;3.67;;;2.63;;
11006;SDS011;8186;57.652;11.968;2023-07-29T04:25:22;3.53;;;3.23;;
11006;SDS011;8186;57.652;11.968;2023-07-29T04:27:49;3.60;;;3.30;;
11006;SDS011;8186;57.652;11.968;2023-07-29T04:30:16;4.13;;;3.23;;
11006;SDS011;8186;57.652;11.968;2023-07-29T04:32:45;5.23;;;3.73;;
11006;SDS011;8186;57.652;11.968;2023-07-29T04:35:15;3.63;;;3.27;;
11006;SDS011;8186;57.652;11.968;2023-07-29T04:37:42;3.43;;;3.13;;
11006;SDS011;8186;57.652;11.968;2023-07-29T04:40:09;3.73;;;3.43;;
11006;SDS011;8186;57.652;11.968;2023-07-29T04:42:37;3.57;;;3.17;;
11006;SDS011;8186;57.652;11.968;2023-07-29T04:45:04;5.37;;;3.40;;
11006;SDS011;8186;57.652;11.968;2023-07-29T04:47:32;3.70;;;3.10;;
11006;SDS011;8186;57.652;11.968;2023-07-29T04:50:00;4.70;;;3.60;;
11006;SDS011;8186;57.652;11.968;2023-07-29T04:52:27;4.63;;;3.17;;
11006;SDS011;8186;57.652;11.968;2023-07-29T04:54:54;3.87;;;3.27;;
11006;SDS011;8186;57.652;11.968;2023-07-29T04:57:21;5.07;;;3.17;;
11006;SDS011;8186;57.652;11.968;2023-07-29T04:59:48;4.47;;;3.03;;
11006;SDS011;8186;57.652;11.968;2023-07-29T05:02:15;3.57;;;3.27;;
11006;SDS011;8186;57.652;11.968;2023-07-29T05:04:42;4.27;;;3.20;;
11006;SDS011;8186;57.652;11.968;2023-07-29T05:07:10;4.83;;;3.20;;
11006;SDS011;8186;57.652;11.968;2023-07-29T05:09:37;4.03;;;3.20;;
11006;SDS011;8186;57.652;11.968;2023-07-29T05:12:05;3.77;;;3.33;;
11006;SDS011;8186;57.652;11.968;2023-07-29T05:14:32;6.27;;;3.13;;
11006;SDS011;8186;57.652;11.968;2023-07-29T05:17:00;3.67;;;3.30;;
11006;SDS011;8186;57.652;11.968;2023-07-29T05:19:27;3.97;;;3.40;;
11006;SDS011;8186;57.652;11.968;2023-07-29T05:21:54;3.83;;;3.43;;
11006;SDS011;8186;57.652;11.968;2023-07-29T05:24:22;5.13;;;3.37;;
11006;SDS011;8186;57.652;11.968;2023-07-29T05:26:49;5.50;;;3.30;;
11006;SDS011;8186;57.652;11.968;2023-07-29T05:29:16;5.43;;;3.50;;
11006;SDS011;8186;57.652;11.968;2023-07-29T05:31:43;3.60;;;3.30;;
11006;SDS011;8186;57.652;11.968;2023-07-29T05:34:10;3.83;;;3.50;;
11006;SDS011;8186;57.652;11.968;2023-07-29T05:36:37;3.40;;;3.00;;
11006;SDS011;8186;57.652;11.968;2023-07-29T05:39:04;3.70;;;3.20;;
11006;SDS011;8186;57.652;11.968;2023-07-29T05:41:33;4.20;;;3.50;;
11006;SDS011;8186;57.652;11.968;2023-07-29T05:44:00;3.40;;;3.10;;
11006;SDS011;8186;57.652;11.968;2023-07-29T05:46:28;2.93;;;2.73;;
11006;SDS011;8186;57.652;11.968;2023-07-29T05:48:55;4.90;;;3.20;;
11006;SDS011;8186;57.652;11.968;2023-07-29T05:51:22;3.10;;;2.73;;
11006;SDS011;8186;57.652;11.968;2023-07-29T05:53:49;4.10;;;3.10;;
11006;SDS011;8186;57.652;11.968;2023-07-29T05:56:15;3.37;;;3.07;;
11006;SDS011;8186;57.652;11.968;2023-07-29T05:58:44;3.23;;;2.90;;
11006;SDS011;8186;57.652;11.968;2023-07-29T06:01:11;3.40;;;3.10;;
11006;SDS011;8186;57.652;11.968;2023-07-29T06:03:38;3.50;;;2.90;;
11006;SDS011;8186;57.652;11.968;2023-07-29T06:06:05;4.50;;;3.10;;
11006;SDS011;8186;57.652;11.968;2023-07-29T06:08:32;3.43;;;2.80;;
11006;SDS011;8186;57.652;11.968;2023-07-29T06:10:59;3.10;;;2.80;;
11006;SDS011;8186;57.652;11.968;2023-07-29T06:13:26;2.97;;;2.50;;
11006;SDS011;8186;57.652;11.968;2023-07-29T06:15:55;3.47;;;2.57;;
11006;SDS011;8186;57.652;11.968;2023-07-29T06:18:22;3.67;;;2.43;;
11006;SDS011;8186;57.652;11.968;2023-07-29T06:20:49;3.40;;;2.77;;
11006;SDS011;8186;57.652;11.968;2023-07-29T06:23:16;3.63;;;2.57;;
11006;SDS011;8186;57.652;11.968;2023-07-29T06:25:43;5.03;;;2.60;;
11006;SDS011;8186;57.652;11.968;2023-07-29T06:28:10;2.97;;;2.77;;
11006;SDS011;8186;57.652;11.968;2023-07-29T06:30:37;2.90;;;2.37;;
11006;SDS011;8186;57.652;11.968;2023-07-29T06:33:05;2.90;;;2.40;;
11006;SDS011;8186;57.652;11.968;2023-07-29T06:35:32;4.30;;;2.60;;
11006;SDS011;8186;57.652;11.968;2023-07-29T06:37:59;5.80;;;2.60;;
11006;SDS011;8186;57.652;11.968;2023-07-29T06:40:26;2.63;;;2.43;;
11006;SDS011;8186;57.652;11.968;2023-07-29T06:42:53;3.00;;;2.70;;
11006;SDS011;8186;57.652;11.968;2023-07-29T06:45:20;5.13;;;2.67;;
11006;SDS011;8186;57.652;11.968;2023-07-29T06:47:47;2.77;;;2.20;;
11006;SDS011;8186;57.652;11.968;2023-07-29T06:50:15;3.60;;;2.80;;
11006;SDS011;8186;57.652;11.968;2023-07-29T06:52:42;2.90;;;2.60;;
11006;SDS011;8186;57.652;11.968;2023-07-29T06:55:10;3.57;;;2.40;;
11006;SDS011;8186;57.652;11.968;2023-07-29T06:57:37;2.95;;;2.63;;
11006;SDS011;8186;57.652;11.968;2023-07-29T07:00:04;3.10;;;2.27;;
11006;SDS011;8186;57.652;11.968;2023-07-29T07:02:34;2.60;;;2.40;;
11006;SDS011;8186;57.652;11.968;2023-07-29T07:05:01;3.63;;;2.83;;
11006;SDS011;8186;57.652;11.968;2023-07-29T07:07:30;4.53;;;2.97;;
11006;SDS011;8186;57.652;11.968;2023-07-29T07:09:56;3.37;;;2.70;;
11006;SDS011;8186;57.652;11.968;2023-07-29T07:12:23;2.53;;;2.30;;
11006;SDS011;8186;57.652;11.968;2023-07-29T07:14:51;4.68;;;2.50;;
11006;SDS011;8186;57.652;11.968;2023-07-29T07:17:18;4.33;;;2.63;;
11006;SDS011;8186;57.652;11.968;2023-07-29T07:19:45;3.67;;;2.53;;
11006;SDS011;8186;57.652;11.968;2023-07-29T07:22:12;3.70;;;2.47;;
11006;SDS011;8186;57.652;11.968;2023-07-29T07:24:41;5.40;;;2.80;;
11006;SDS011;8186;57.652;11.968;2023-07-29T07:27:08;3.63;;;2.60;;
11006;SDS011;8186;57.652;11.968;2023-07-29T07:29:35;4.07;;;2.70;;
11006;SDS011;8186;57.652;11.968;2023-07-29T07:32:02;3.13;;;2.63;;
11006;SDS011;8186;57.652;11.968;2023-07-29T07:34:29;3.25;;;2.60;;
11006;SDS011;8186;57.652;11.968;2023-07-29T07:36:56;3.10;;;2.40;;
11006;SDS011;8186;57.652;11.968;2023-07-29T07:39:23;3.45;;;2.47;;
11006;SDS011;8186;57.652;11.968;2023-07-29T07:41:51;2.93;;;2.30;;
11006;SDS011;8186;57.652;11.968;2023-07-29T07:44:18;3.58;;;2.83;;
11006;SDS011;8186;57.652;11.968;2023-07-29T07:46:46;3.25;;;2.40;;
11006;SDS011;8186;57.652;11.968;2023-07-29T07:49:13;3.33;;;2.53;;
11006;SDS011;8186;57.652;11.968;2023-07-29T07:51:40;4.05;;;2.25;;
11006;SDS011;8186;57.652;11.968;2023-07-29T07:54:07;5.38;;;2.70;;
11006;SDS011;8186;57.652;11.968;2023-07-29T07:56:34;2.40;;;2.20;;
11006;SDS011;8186;57.652;11.968;2023-07-29T07:59:03;2.70;;;2.50;;
11006;SDS011;8186;57.652;11.968;2023-07-29T08:01:33;3.28;;;2.40;;
11006;SDS011;8186;57.652;11.968;2023-07-29T08:04:01;5.18;;;2.47;;
11006;SDS011;8186;57.652;11.968;2023-07-29T08:06:28;3.30;;;2.58;;
11006;SDS011;8186;57.652;11.968;2023-07-29T08:08:55;2.63;;;2.25;;
11006;SDS011;8186;57.652;11.968;2023-07-29T08:11:22;3.40;;;2.45;;
11006;SDS011;8186;57.652;11.968;2023-07-29T08:13:52;4.10;;;2.60;;
11006;SDS011;8186;57.652;11.968;2023-07-29T08:16:20;3.90;;;2.60;;
11006;SDS011;8186;57.652;11.968;2023-07-29T08:18:47;2.95;;;2.75;;
11006;SDS011;8186;57.652;11.968;2023-07-29T08:21:16;3.42;;;2.63;;
11006;SDS011;8186;57.652;11.968;2023-07-29T08:23:43;6.15;;;2.70;;
11006;SDS011;8186;57.652;11.968;2023-07-29T08:26:09;6.13;;;2.85;;
11006;SDS011;8186;57.652;11.968;2023-07-29T08:28:37;3.25;;;2.95;;
11006;SDS011;8186;57.652;11.968;2023-07-29T08:31:05;4.30;;;2.83;;
11006;SDS011;8186;57.652;11.968;2023-07-29T08:33:34;3.00;;;2.70;;
11006;SDS011;8186;57.652;11.968;2023-07-29T08:36:01;5.00;;;2.90;;
11006;SDS011;8186;57.652;11.968;2023-07-29T08:38:29;3.67;;;2.47;;
11006;SDS011;8186;57.652;11.968;2023-07-29T08:40:58;3.78;;;2.80;;
11006;SDS011;8186;57.652;11.968;2023-07-29T08:43:30;3.30;;;2.63;;
11006;SDS011;8186;57.652;11.968;2023-07-29T08:45:58;3.10;;;2.80;;
11006;SDS011;8186;57.652;11.968;2023-07-29T08:48:29;4.72;;;3.00;;
11006;SDS011;8186;57.652;11.968;2023-07-29T08:51:01;4.80;;;3.08;;
11006;SDS011;8186;57.652;11.968;2023-07-29T08:53:30;4.60;;;3.38;;
11006;SDS011;8186;57.652;11.968;2023-07-29T08:55:57;6.63;;;3.28;;
11006;SDS011;8186;57.652;11.968;2023-07-29T08:58:25;3.92;;;3.20;;
11006;SDS011;8186;57.652;11.968;2023-07-29T09:00:52;6.07;;;2.70;;
11006;SDS011;8186;57.652;11.968;2023-07-29T09:03:19;6.40;;;2.72;;
11006;SDS011;8186;57.652;11.968;2023-07-29T09:05:46;4.25;;;2.55;;
11006;SDS011;8186;57.652;11.968;2023-07-29T09:08:15;4.38;;;2.88;;
11006;SDS011;8186;57.652;11.968;2023-07-29T09:10:42;4.13;;;2.85;;
11006;SDS011;8186;57.652;11.968;2023-07-29T09:13:09;5.57;;;3.40;;
11006;SDS011;8186;57.652;11.968;2023-07-29T09:15:36;4.57;;;3.22;;
11006;SDS011;8186;57.652;11.968;2023-07-29T09:18:10;4.07;;;3.00;;
11006;SDS011;8186;57.652;11.968;2023-07-29T09:20:40;4.03;;;2.97;;
11006;SDS011;8186;57.652;11.968;2023-07-29T09:23:08;3.83;;;3.10;;
11006;SDS011;8186;57.652;11.968;2023-07-29T09:25:37;7.15;;;3.63;;
11006;SDS011;8186;57.652;11.968;2023-07-29T09:28:09;6.15;;;3.30;;
11006;SDS011;8186;57.652;11.968;2023-07-29T09:30:37;4.13;;;3.42;;
11006;SDS011;8186;57.652;11.968;2023-07-29T09:33:04;5.55;;;3.50;;
11006;SDS011;8186;57.652;11.968;2023-07-29T09:35:32;4.43;;;3.38;;
11006;SDS011;8186;57.652;11.968;2023-07-29T09:38:00;6.70;;;3.42;;
11006;SDS011;8186;57.652;11.968;2023-07-29T09:40:27;5.47;;;3.67;;
11006;SDS011;8186;57.652;11.968;2023-07-29T09:42:55;5.85;;;3.45;;
11006;SDS011;8186;57.652;11.968;2023-07-29T09:45:23;3.92;;;3.22;;
11006;SDS011;8186;57.652;11.968;2023-07-29T09:47:51;4.45;;;3.38;;
11006;SDS011;8186;57.652;11.968;2023-07-29T09:50:20;5.97;;;3.50;;
11006;SDS011;8186;57.652;11.968;2023-07-29T09:52:50;3.92;;;3.40;;
11006;SDS011;8186;57.652;11.968;2023-07-29T09:55:18;5.07;;;3.20;;
11006;SDS011;8186;57.652;11.968;2023-07-29T09:57:46;4.00;;;3.10;;
11006;SDS011;8186;57.652;11.968;2023-07-29T10:00:15;3.45;;;3.15;;
11006;SDS011;8186;57.652;11.968;2023-07-29T10:02:44;3.92;;;3.22;;
11006;SDS011;8186;57.652;11.968;2023-07-29T10:05:12;5.05;;;3.03;;
11006;SDS011;8186;57.652;11.968;2023-07-29T10:07:39;3.15;;;2.85;;
11006;SDS011;8186;57.652;11.968;2023-07-29T10:10:07;6.43;;;2.90;;
11006;SDS011;8186;57.652;11.968;2023-07-29T10:12:35;3.58;;;2.85;;
11006;SDS011;8186;57.652;11.968;2023-07-29T10:15:03;3.72;;;2.80;;
11006;SDS011;8186;57.652;11.968;2023-07-29T10:17:33;2.97;;;2.33;;
11006;SDS011;8186;57.652;11.968;2023-07-29T10:20:02;4.43;;;2.70;;
11006;SDS011;8186;57.652;11.968;2023-07-29T10:22:33;3.92;;;2.92;;
11006;SDS011;8186;57.652;11.968;2023-07-29T10:25:07;5.35;;;3.13;;
11006;SDS011;8186;57.652;11.968;2023-07-29T10:27:47;4.50;;;3.10;;
11006;SDS011;8186;57.652;11.968;2023-07-29T10:30:17;4.25;;;3.40;;
11006;SDS011;8186;57.652;11.968;2023-07-29T10:32:46;4.82;;;2.90;;
11006;SDS011;8186;57.652;11.968;2023-07-29T10:35:13;4.65;;;2.83;;
11006;SDS011;8186;57.652;11.968;2023-07-29T10:37:41;4.15;;;3.75;;
11006;SDS011;8186;57.652;11.968;2023-07-29T10:40:09;6.85;;;5.20;;
11006;SDS011;8186;57.652;11.968;2023-07-29T10:42:37;5.97;;;4.57;;
11006;SDS011;8186;57.652;11.968;2023-07-29T10:45:17;9.15;;;5.25;;
11006;SDS011;8186;57.652;11.968;2023-07-29T10:47:49;8.57;;;5.10;;
11006;SDS011;8186;57.652;11.968;2023-07-29T10:50:17;6.75;;;4.82;;
11006;SDS011;8186;57.652;11.968;2023-07-29T10:52:49;5.68;;;4.75;;
11006;SDS011;8186;57.652;11.968;2023-07-29T10:55:27;7.93;;;5.65;;
11006;SDS011;8186;57.652;11.968;2023-07-29T10:58:04;5.18;;;4.68;;
11006;SDS011;8186;57.652;11.968;2023-07-29T11:00:35;5.80;;;5.30;;
11006;SDS011;8186;57.652;11.968;2023-07-29T11:03:04;5.25;;;4.63;;
11006;SDS011;8186;57.652;11.968;2023-07-29T11:08:26;5.78;;;4.82;;
11006;SDS011;8186;57.652;11.968;2023-07-29T11:10:57;5.18;;;4.68;;
11006;SDS011;8186;57.652;11.968;2023-07-29T11:13:26;4.90;;;4.38;;
11006;SDS011;8186;57.652;11.968;2023-07-29T11:15:54;5.57;;;4.30;;
11006;SDS011;8186;57.652;11.968;2023-07-29T11:18:27;5.45;;;4.68;;
11006;SDS011;8186;57.652;11.968;2023-07-29T11:20:55;4.95;;;4.18;;
11006;SDS011;8186;57.652;11.968;2023-07-29T11:23:27;7.03;;;4.10;;
11006;SDS011;8186;57.652;11.968;2023-07-29T11:25:55;4.20;;;3.55;;
11006;SDS011;8186;57.652;11.968;2023-07-29T11:28:23;5.05;;;3.60;;
11006;SDS011;8186;57.652;11.968;2023-07-29T11:30:51;4.75;;;3.65;;
11006;SDS011;8186;57.652;11.968;2023-07-29T11:33:19;4.10;;;3.47;;
11006;SDS011;8186;57.652;11.968;2023-07-29T11:35:49;3.88;;;3.17;;
11006;SDS011;8186;57.652;11.968;2023-07-29T11:38:16;3.63;;;2.92;;
11006;SDS011;8186;57.652;11.968;2023-07-29T11:40:53;2.78;;;2.30;;
11006;SDS011;8186;57.652;11.968;2023-07-29T11:43:21;2.88;;;2.40;;
11006;SDS011;8186;57.652;11.968;2023-07-29T11:45:49;2.55;;;2.20;;
11006;SDS011;8186;57.652;11.968;2023-07-29T11:48:18;1.77;;;1.50;;
11006;SDS011;8186;57.652;11.968;2023-07-29T11:50:45;1.52;;;1.42;;
11006;SDS011;8186;57.652;11.968;2023-07-29T11:53:14;1.40;;;1.27;;
11006;SDS011;8186;57.652;11.968;2023-07-29T11:55:41;1.60;;;1.50;;
11006;SDS011;8186;57.652;11.968;2023-07-29T11:58:09;1.85;;;1.67;;
11006;SDS011;8186;57.652;11.968;2023-07-29T12:00:37;1.40;;;1.30;;
11006;SDS011;8186;57.652;11.968;2023-07-29T12:03:04;1.45;;;1.35;;
11006;SDS011;8186;57.652;11.968;2023-07-29T12:05:33;1.20;;;1.10;;
11006;SDS011;8186;57.652;11.968;2023-07-29T12:08:01;1.48;;;1.38;;
11006;SDS011;8186;57.652;11.968;2023-07-29T12:10:29;1.27;;;1.10;;
11006;SDS011;8186;57.652;11.968;2023-07-29T12:12:56;1.13;;;1.08;;
11006;SDS011;8186;57.652;11.968;2023-07-29T12:15:24;0.93;;;0.93;;
11006;SDS011;8186;57.652;11.968;2023-07-29T12:17:54;1.08;;;1.00;;
11006;SDS011;8186;57.652;11.968;2023-07-29T12:20:22;1.20;;;1.10;;
11006;SDS011;8186;57.652;11.968;2023-07-29T12:22:53;1.10;;;1.08;;
11006;SDS011;8186;57.652;11.968;2023-07-29T12:25:22;1.13;;;1.10;;
11006;SDS011;8186;57.652;11.968;2023-07-29T12:27:51;1.25;;;1.17;;
11006;SDS011;8186;57.652;11.968;2023-07-29T12:30:22;1.10;;;1.00;;
11006;SDS011;8186;57.652;11.968;2023-07-29T12:32:50;1.42;;;1.33;;
11006;SDS011;8186;57.652;11.968;2023-07-29T12:35:17;1.55;;;1.30;;
11006;SDS011;8186;57.652;11.968;2023-07-29T12:37:44;1.30;;;1.20;;
11006;SDS011;8186;57.652;11.968;2023-07-29T12:40:21;0.90;;;0.90;;
11006;SDS011;8186;57.652;11.968;2023-07-29T12:42:50;1.38;;;1.27;;
11006;SDS011;8186;57.652;11.968;2023-07-29T12:45:18;1.00;;;1.00;;
11006;SDS011;8186;57.652;11.968;2023-07-29T12:47:48;1.20;;;1.08;;
11006;SDS011;8186;57.652;11.968;2023-07-29T12:50:15;2.40;;;1.20;;
11006;SDS011;8186;57.652;11.968;2023-07-29T12:52:42;1.77;;;1.30;;
11006;SDS011;8186;57.652;11.968;2023-07-29T12:55:09;1.50;;;1.20;;
11006;SDS011;8186;57.652;11.968;2023-07-29T12:57:39;1.60;;;1.35;;
11006;SDS011;8186;57.652;11.968;2023-07-29T13:00:09;1.40;;;1.30;;
11006;SDS011;8186;57.652;11.968;2023-07-29T13:02:37;1.38;;;1.33;;
11006;SDS011;8186;57.652;11.968;2023-07-29T13:05:05;2.45;;;1.40;;
11006;SDS011;8186;57.652;11.968;2023-07-29T13:07:35;1.40;;;1.30;;
11006;SDS011;8186;57.652;11.968;2023-07-29T13:10:03;1.10;;;1.10;;
11006;SDS011;8186;57.652;11.968;2023-07-29T13:12:30;1.60;;;1.50;;
11006;SDS011;8186;57.652;11.968;2023-07-29T13:14:58;1.52;;;1.40;;
11006;SDS011;8186;57.652;11.968;2023-07-29T13:17:26;1.45;;;1.35;;
11006;SDS011;8186;57.652;11.968;2023-07-29T13:19:53;1.00;;;1.00;;
11006;SDS011;8186;57.652;11.968;2023-07-29T13:22:21;1.60;;;1.30;;
11006;SDS011;8186;57.652;11.968;2023-07-29T13:24:49;1.33;;;1.23;;
11006;SDS011;8186;57.652;11.968;2023-07-29T13:27:16;1.40;;;1.30;;
11006;SDS011;8186;57.652;11.968;2023-07-29T13:29:43;1.40;;;1.30;;
11006;SDS011;8186;57.652;11.968;2023-07-29T13:32:12;2.03;;;1.45;;
11006;SDS011;8186;57.652;11.968;2023-07-29T13:34:40;1.60;;;1.50;;
11006;SDS011;8186;57.652;11.968;2023-07-29T13:37:07;1.67;;;1.58;;
11006;SDS011;8186;57.652;11.968;2023-07-29T13:39:35;1.48;;;1.35;;
11006;SDS011;8186;57.652;11.968;2023-07-29T13:42:02;2.45;;;1.33;;
11006;SDS011;8186;57.652;11.968;2023-07-29T13:44:30;3.13;;;1.35;;
11006;SDS011;8186;57.652;11.968;2023-07-29T13:46:59;1.45;;;1.30;;
11006;SDS011;8186;57.652;11.968;2023-07-29T13:49:26;1.63;;;1.10;;
11006;SDS011;8186;57.652;11.968;2023-07-29T13:51:55;1.23;;;1.13;;
11006;SDS011;8186;57.652;11.968;2023-07-29T13:54:22;1.30;;;1.20;;
11006;SDS011;8186;57.652;11.968;2023-07-29T13:56:49;1.10;;;1.10;;
11006;SDS011;8186;57.652;11.968;2023-07-29T13:59:16;1.40;;;1.00;;
11006;SDS011;8186;57.652;11.968;2023-07-29T14:01:43;1.70;;;1.00;;
11006;SDS011;8186;57.652;11.968;2023-07-29T14:04:10;1.40;;;1.30;;
11006;SDS011;8186;57.652;11.968;2023-07-29T14:06:37;2.75;;;1.20;;
11006;SDS011;8186;57.652;11.968;2023-07-29T14:09:05;1.20;;;1.10;;
11006;SDS011;8186;57.652;11.968;2023-07-29T14:11:33;1.17;;;1.00;;
11006;SDS011;8186;57.652;11.968;2023-07-29T14:14:00;1.30;;;1.20;;
11006;SDS011;8186;57.652;11.968;2023-07-29T14:16:27;1.20;;;1.10;;
11006;SDS011;8186;57.652;11.968;2023-07-29T14:18:53;1.50;;;1.20;;
11006;SDS011;8186;57.652;11.968;2023-07-29T14:21:20;1.02;;;1.00;;
11006;SDS011;8186;57.652;11.968;2023-07-29T14:23:47;1.48;;;1.30;;
11006;SDS011;8186;57.652;11.968;2023-07-29T14:26:17;1.33;;;1.23;;
11006;SDS011;8186;57.652;11.968;2023-07-29T14:28:44;2.45;;;1.33;;
11006;SDS011;8186;57.652;11.968;2023-07-29T14:31:11;1.63;;;1.35;;
11006;SDS011;8186;57.652;11.968;2023-07-29T14:33:38;2.22;;;1.30;;
11006;SDS011;8186;57.652;11.968;2023-07-29T14:36:05;2.10;;;1.30;;
11006;SDS011;8186;57.652;11.968;2023-07-29T14:38:32;1.33;;;1.23;;
11006;SDS011;8186;57.652;11.968;2023-07-29T14:40:59;1.40;;;1.30;;
11006;SDS011;8186;57.652;11.968;2023-07-29T14:43:28;1.25;;;1.15;;
11006;SDS011;8186;57.652;11.968;2023-07-29T14:45:55;2.95;;;1.45;;
11006;SDS011;8186;57.652;11.968;2023-07-29T14:48:22;1.63;;;1.52;;
11006;SDS011;8186;57.652;11.968;2023-07-29T14:50:50;1.50;;;1.40;;
11006;SDS011;8186;57.652;11.968;2023-07-29T14:53:17;1.58;;;1.48;;
11006;SDS011;8186;57.652;11.968;2023-07-29T14:55:44;1.40;;;1.30;;